Logo AVAMET
Benvolgut visitant, si us plau, ingressa Recuperar contrasenya
AVAMET paisatges

Inforatge Piles

Dades diàries. Acumulats / Últims 30 dies disponibles

Data Temperatura (°C) Humitat rel. (%) Pressió rel. (hPa) Vent (km/h) Precipitació
Mínima Mitjana Màxima Amplitud
tèrmica
Mínima Mitjana Màxima Mínima Mitjana Màxima Predom. Mitjana Ràfega
màxima
Total
(mm)
Índex-n
Mínima Mitjana Màxima Mínima Mitjana Màxima n
0 a 1
P0 max
mm 5'
Dades mensuals acumulades fins l'últim dia disponible
01/2021 2,5 5,7 9,1 8,7 7,8 13,1 22,6 20,1 25 66 98 1.007 1.019 1.031   7,7 49,9 97,8
Dades anuals acumulades fins l'últim dia disponible
2021 2,5 5,7 9,1 8,7 7,8 13,1 22,6 20,1 25 66 98 1.007 1.019 1.031   7,7 49,9 97,8
Últims 30 dies disponibles
17-01-2021 9,1     14,5     22,6 13,5 25 38 47 1.025 1.028 1.030 W 7,7 25,7 0,0
16-01-2021 6,7     10,5     15,7 9,0 38 55 70 1.025 1.028 1.031 W 6,6 20,9 0,0
15-01-2021 8,2     12,1     18,3 10,1 38 53 67 1.024 1.025 1.027 W 8,4 32,2 0,0
14-01-2021 5,6     9,7     15,5 9,9 37 59 71 1.024 1.026 1.029 W 6,4 24,1 0,0
13-01-2021 5,6     8,7     13,7 8,1 38 57 72 1.029 1.029 1.031 W 5,8 22,5 0,0
12-01-2021 3,6     7,5     14,6 11,0 37 62 81 1.028 1.029 1.031 W 7,7 29,0 0,0
11-01-2021 5,0     7,4     10,8 5,8 69 84 92 1.018 1.022 1.028 W 3,2 24,1 0,0
10-01-2021 4,9     6,3     7,8 2,9 84 90 95 1.010 1.014 1.019 W 4,8 16,1 9,6 0,37 0,50
09-01-2021 4,8     6,5     8,7 3,9 91 96 98 1.007 1.008 1.010 W 9,2 37,0 15,8 0,42 0,40
08-01-2021 4,8     7,6     9,6 4,8 84 91 97 1.009 1.013 1.015 ENE 12,7 37,0 36,6 0,35 0,90
07-01-2021 5,8     6,9     8,9 3,1 78 91 96 1.013 1.015 1.017 WNW 4,2 32,2 35,8 0,48 0,90
06-01-2021 2,5     6,6     10,7 8,2 50 66 80 1.014 1.016 1.018 W 5,0 20,9 0,0
05-01-2021 4,4     7,7     13,4 9,0 34 59 71 1.013 1.014 1.016 W 6,9 29,0 0,0
04-01-2021 6,7     9,1     12,8 6,1 44 57 68 1.012 1.014 1.016 W 8,4 40,2 0,0
03-01-2021 4,6     8,3     13,3 8,7 36 50 57 1.014 1.015 1.017 W 10,8 35,4 0,0
02-01-2021 5,8     8,4     11,5 5,7 43 52 63 1.010 1.012 1.014 W 13,7 43,5 0,0
01-01-2021 8,2     10,8     14,7 6,5 39 58 69 1.007 1.010 1.013 W 9,5 49,9 0,0
31-12-2020 6,9     11,0     16,1 9,2 39 53 62 1.012 1.016 1.020 O 10,8 38,6 0,0
30-12-2020 7,8     10,4     14,7 6,9 39 52 63 1.011 1.017 1.020 W 12,1 37,0 0,0
29-12-2020 9,2     11,4     14,7 5,5 46 57 63 1.006 1.008 1.011 W 14,3 46,7 0,0
28-12-2020 11,3     13,5     16,7 5,4 24 46 71 999 1.004 1.007 W 14,0 57,9 0,2
27-12-2020 4,6     12,0     18,6 14,0 25 40 58 1.004 1.015 1.025 WSW 11,4 41,8 0,0
26-12-2020 4,7     8,5     14,5 9,8 27 45 56 1.025 1.027 1.029 W 8,5 30,6 0,0
25-12-2020 6,6     11,7     14,2 7,6 28 61 92 1.023 1.026 1.029 W 5,8 38,6 0,4
24-12-2020 11,7     14,2     17,8 6,1 60 75 90 1.023 1.024 1.025 W 4,5 22,5 0,0
23-12-2020 10,3     14,8     19,8 9,5 62 76 94 1.024 1.025 1.028 W 2,9 25,7 0,0
22-12-2020 10,5     13,6     17,4 6,9 68 81 94 1.028 1.029 1.031 W 2,7 16,1 0,0
21-12-2020 9,4     13,6     19,4 10,0 51 73 83 1.029 1.030 1.031 W 4,5 20,9 0,0
20-12-2020 10,8     14,3     19,6 8,8 56 75 87 1.023 1.025 1.030 W 5,1 27,4 0,0
19-12-2020 9,3     13,4     18,2 8,9 61 79 88 1.021 1.023 1.024 W 3,7 17,7 0,0
Últims 13 mesos disponibles
12/2020 4,6 9,7 15,8 13,3 13,1 17,5 23,3 18,7 40 65 86 1.004 1.019 1.030 W 8,6 64,4 3,6
11/2020 8,6 13,1 17,2 16,1 14,1 19,9 25,8 17,2 71 83 96 1.009 1.024 1.032 W 4,6 56,3 144,8
10/2020 11,6 15,3 18,9 19,5 18,9 24,1 30,9 19,3 46 64 87 1.001 1.020 1.028 W 6,3 66,0 10,8
09/2020 15,2 20,0 23,9 23,7 24,0 27,9 32,3 17,1 41 70 82 1.014 1.020 1.026 W 6,1 40,2 24,4
08/2020 18,1 23,7 25,6 27,6 24,9 32,2 40,2 22,1 47 73 85 1.007 1.016 1.021 NE 5,7 38,6 10,0
07/2020 20,2 23,1 24,9 26,6 27,9 30,3 36,1 15,9 61 76 84 1.014 1.019 1.023 NE 5,9 46,7 4,0
06/2020 15,7 19,6 23,3 23,8 20,6 28,4 33,6 17,9 44 73 85 1.007 1.017 1.023 NE 6,5 41,8 18,6
05/2020 13,8 17,2 21,0 21,2 20,3 25,6 32,2 18,4 50 72 85 1.008 1.019 1.030 W 5,8 46,7 24,0
04/2020 10,2 13,2 19,2 16,1 15,2 19,4 27,6 17,4 48 80 95 1.008 1.018 1.028 W 5,5 46,7 45,6
03/2020 7,3 11,7 17,5 14,7 11,2 18,3 25,3 18,0 44 74 93 1.008 1.019 1.029 W 7,6 80,5 108,6
02/2020 7,3 11,1 15,9 15,5 14,4 20,5 27,8 20,5 37 71 89 1.016 1.027 1.035 W 5,8 43,5 1,0
01/2020 5,9 7,9 11,4 11,2 12,5 15,4 19,6 13,7 54 76 98 1.019 1.029 1.035 W 6,9 80,5 107,2
12/2019 7,4 11,8 19,4 14,7 13,8 18,5 26,7 19,3 46 71 94 1.005 1.021 1.035 W 8,2 75,6 175,0
Tots els anys disponibles
2020 4,6 15,7 25,6 19,3 11,2 23,5 40,2 35,6 37 73 98 1.001 1.020 1.035 W 6,2 80,5 502,6
2019 3,3 15,4 26,9 18,9 10,7 22,9 38,2 34,9 32 69 94 999 1.020 1.037 SSE 8,6 85,4 594,2
Temperatura (°C)
Humitat relativa (%)
Velocitat del vent i ràfega màxima (km/h)
Direcció del vent (°)
Pressió (hPa)
Precipitació (mm)
Nota sobre les dades: s'avisa a l'usuari de la provisionalitat i no oficialitat d'aquestes dades
Logo AVAMET blanc
Web allotjada a Sollutia
Llicència de Creative CommonsLa web d'AVAMET i els seus continguts estan subjectes a una llicència de
Reconeixement - No Comercial - Compartir igual
Avís legal - Política de privacitat - Política de cookies
NOVES ESTACIONS: Rossell - carrer Sant Vicent (Soci), Onda - CR Cota 220 (Soci), Artana (Ajuntament/Soci), Sax (Soci), Benicarló - Sant Gregori (Soci), Riba-roja de Túria - la Reva (Soci), Castielfabib - Arroyo Cerezo (Pròpia d'AVAMET), Tavernes de la Valldigna - Ull del Bou/Cambro (Soci), Chella - Casa Conde (Soci), El Genovés (Inforatge) - - -